Time;durP1;ratioP1;P1;durP2;ratioP2;P2;SDS_P1;SDS_P2;PMS_P1;PMS_P2;Temp;Humidity;BMP_temperature;BMP_pressure;BME280_temperature;BME280_humidity;BME280_pressure;Samples;Min_cycle;Max_cycle;Signal;HPM_P1;HPM_P2
2021/05/05 00:01:31;;;;;;;2.47;1.88;;;;;;;;;;6909523;28;20021;-91
2021/05/05 00:04:51;;;;;;;4.00;1.90;;;;;;;;;;6925858;28;20057;-93
2021/05/05 00:08:12;;;;;;;4.00;2.08;;;;;;;;;;6908575;28;20399;-90
2021/05/05 00:11:32;;;;;;;6.35;1.95;;;;;;;;;;6925638;28;20108;-90
2021/05/05 00:14:52;;;;;;;2.78;1.85;;;;;;;;;;6925765;28;20375;-89
2021/05/05 00:18:13;;;;;;;5.07;2.55;;;;;;;;;;6925714;28;20033;-89
2021/05/05 00:21:34;;;;;;;3.60;1.98;;;;;;;;;;6925633;28;20435;-89
2021/05/05 00:24:54;;;;;;;3.00;1.83;;;;;;;;;;6942439;28;20049;-89
2021/05/05 00:28:14;;;;;;;4.65;1.90;;;;;;;;;;6927774;23;20066;-89
2021/05/05 00:31:35;;;;;;;4.70;1.77;;;;;;;;;;6915705;28;20071;-89
2021/05/05 00:34:56;;;;;;;2.45;1.75;;;;;;;;;;6920448;28;20037;-89
2021/05/05 00:38:16;;;;;;;4.50;2.03;;;;;;;;;;6920156;28;20037;-88
2021/05/05 00:41:37;;;;;;;4.45;2.03;;;;;;;;;;6920621;28;20125;-87
2021/05/05 00:45:02;;;;;;;3.60;1.88;;;;;;;;;;6920997;28;20037;-88
2021/05/05 00:48:22;;;;;;;3.90;1.80;;;;;;;;;;6920404;28;20033;-88
2021/05/05 00:51:43;;;;;;;3.20;1.90;;;;;;;;;;6920022;28;20058;-88
2021/05/05 00:55:05;;;;;;;3.53;2.15;;;;;;;;;;6918679;28;20018;-88
2021/05/05 00:58:26;;;;;;;2.70;1.88;;;;;;;;;;6919800;28;20029;-88
2021/05/05 01:01:46;;;;;;;2.05;1.65;;;;;;;;;;6919875;28;20482;-87
2021/05/05 01:05:08;;;;;;;3.42;1.80;;;;;;;;;;6919899;28;20022;-87
2021/05/05 01:08:29;;;;;;;2.92;1.88;;;;;;;;;;6920164;28;20356;-89
2021/05/05 01:11:49;;;;;;;3.55;1.80;;;;;;;;;;6919765;28;20455;-89
2021/05/05 01:15:12;;;;;;;4.30;2.10;;;;;;;;;;6919682;28;20424;-89
2021/05/05 01:18:33;;;;;;;3.42;1.70;;;;;;;;;;6919921;28;20032;-89
2021/05/05 01:21:54;;;;;;;2.78;1.90;;;;;;;;;;6918900;28;20034;-88
2021/05/05 01:25:17;;;;;;;2.08;1.45;;;;;;;;;;6919378;28;20081;-90
2021/05/05 01:28:40;;;;;;;6.20;2.03;;;;;;;;;;6919992;28;20104;-91
2021/05/05 01:32:00;;;;;;;2.15;1.75;;;;;;;;;;6918483;28;20043;-91
2021/05/05 01:35:24;;;;;;;3.22;1.70;;;;;;;;;;6917679;28;20101;-90
2021/05/05 01:38:48;;;;;;;6.18;1.75;;;;;;;;;;6919298;28;20475;-89
2021/05/05 01:42:09;;;;;;;3.45;1.83;;;;;;;;;;6918650;28;20460;-91
2021/05/05 01:45:29;;;;;;;3.20;1.63;;;;;;;;;;6918880;28;20022;-91
2021/05/05 01:48:50;;;;;;;1.65;1.55;;;;;;;;;;6918613;28;20076;-92
2021/05/05 01:52:10;;;;;;;2.25;1.67;;;;;;;;;;6917709;28;20026;-90
2021/05/05 01:55:31;;;;;;;4.80;2.28;;;;;;;;;;6917601;28;20116;-89
2021/05/05 01:58:51;;;;;;;3.13;1.95;;;;;;;;;;6917029;28;20022;-89
2021/05/05 02:02:12;;;;;;;2.95;1.90;;;;;;;;;;6918725;28;20065;-90
2021/05/05 02:05:33;;;;;;;2.15;1.70;;;;;;;;;;6900788;28;20036;-88
2021/05/05 02:08:53;;;;;;;2.65;1.90;;;;;;;;;;6918460;28;20026;-89
2021/05/05 02:12:14;;;;;;;3.35;1.90;;;;;;;;;;6918209;28;20030;-89
2021/05/05 02:15:35;;;;;;;1.73;1.60;;;;;;;;;;6918690;28;20030;-89
2021/05/05 02:18:55;;;;;;;2.58;1.60;;;;;;;;;;6917566;28;20032;-91
2021/05/05 02:22:16;;;;;;;4.40;1.85;;;;;;;;;;6917819;28;20041;-91
2021/05/05 02:25:36;;;;;;;2.60;1.70;;;;;;;;;;6918237;28;20095;-92
2021/05/05 02:28:56;;;;;;;2.42;1.65;;;;;;;;;;6900311;28;20100;-89
2021/05/05 02:32:21;;;;;;;1.80;1.60;;;;;;;;;;6917318;28;20088;-89
2021/05/05 02:35:41;;;;;;;2.60;1.65;;;;;;;;;;6900246;28;20034;-89
2021/05/05 02:39:05;;;;;;;2.20;1.63;;;;;;;;;;6917938;28;20076;-90
2021/05/05 02:42:25;;;;;;;4.63;1.52;;;;;;;;;;6917310;28;20052;-90
2021/05/05 02:45:46;;;;;;;2.90;1.70;;;;;;;;;;6918977;28;20030;-90
2021/05/05 02:49:07;;;;;;;3.03;2.08;;;;;;;;;;6917618;28;20026;-87
2021/05/05 02:52:27;;;;;;;3.42;2.25;;;;;;;;;;6917460;28;20038;-89
2021/05/05 02:55:47;;;;;;;3.15;1.60;;;;;;;;;;6899227;28;20022;-87
2021/05/05 02:59:08;;;;;;;4.70;2.03;;;;;;;;;;6917243;28;20041;-87
2021/05/05 03:02:28;;;;;;;4.53;1.77;;;;;;;;;;6915837;28;20498;-87
2021/05/05 03:05:48;;;;;;;3.53;1.90;;;;;;;;;;6916339;28;20107;-87
2021/05/05 03:09:09;;;;;;;3.08;2.17;;;;;;;;;;6916923;28;20030;-87
2021/05/05 03:12:29;;;;;;;2.38;1.80;;;;;;;;;;6917565;28;20121;-87
2021/05/05 03:15:50;;;;;;;3.67;2.10;;;;;;;;;;6916775;28;20053;-88
2021/05/05 03:19:10;;;;;;;3.08;1.73;;;;;;;;;;6915908;28;20018;-89
2021/05/05 03:22:30;;;;;;;5.25;1.98;;;;;;;;;;6916124;28;20083;-89
2021/05/05 03:25:51;;;;;;;2.95;1.90;;;;;;;;;;6899406;28;20030;-90
2021/05/05 03:29:11;;;;;;;1.75;1.45;;;;;;;;;;6915888;28;20554;-89
2021/05/05 03:32:32;;;;;;;2.97;1.63;;;;;;;;;;6916498;28;20471;-89
2021/05/05 03:35:52;;;;;;;1.95;1.60;;;;;;;;;;6899126;28;20030;-89
2021/05/05 03:39:13;;;;;;;1.63;1.52;;;;;;;;;;6915126;28;20046;-89
2021/05/05 03:42:33;;;;;;;2.10;1.70;;;;;;;;;;6915155;28;20030;-89
2021/05/05 03:45:54;;;;;;;4.07;1.98;;;;;;;;;;6899107;28;20037;-89
2021/05/05 03:49:15;;;;;;;1.73;1.55;;;;;;;;;;6915241;28;20033;-90
2021/05/05 03:52:35;;;;;;;2.15;1.60;;;;;;;;;;6916123;28;20113;-89
2021/05/05 03:55:56;;;;;;;1.63;1.50;;;;;;;;;;6916191;28;20033;-89
2021/05/05 03:59:16;;;;;;;4.85;1.67;;;;;;;;;;6915390;28;20369;-89
2021/05/05 04:02:37;;;;;;;2.65;1.55;;;;;;;;;;6915212;28;20180;-89
2021/05/05 04:05:57;;;;;;;1.77;1.50;;;;;;;;;;6898313;28;20029;-88
2021/05/05 04:09:18;;;;;;;2.90;1.83;;;;;;;;;;6921088;28;20100;-90
2021/05/05 04:12:40;;;;;;;5.70;1.60;;;;;;;;;;6903623;28;20108;-88
2021/05/05 04:16:00;;;;;;;2.72;1.60;;;;;;;;;;6920257;28;20030;-89
2021/05/05 04:19:21;;;;;;;2.88;1.83;;;;;;;;;;6921658;28;20112;-88
2021/05/05 04:22:41;;;;;;;2.22;1.58;;;;;;;;;;6921356;28;20109;-89
2021/05/05 04:26:03;;;;;;;2.35;1.40;;;;;;;;;;6921025;28;20034;-88
2021/05/05 04:29:24;;;;;;;1.92;1.67;;;;;;;;;;6919014;28;20100;-91
2021/05/05 04:32:50;;;;;;;2.22;1.25;;;;;;;;;;6903282;28;20108;-91
2021/05/05 04:36:10;;;;;;;2.33;1.48;;;;;;;;;;6919308;28;20026;-91
2021/05/05 04:39:31;;;;;;;2.92;1.70;;;;;;;;;;6903599;28;20064;-90
2021/05/05 04:42:52;;;;;;;2.30;1.75;;;;;;;;;;6902909;28;20029;-91
2021/05/05 04:46:12;;;;;;;5.53;1.90;;;;;;;;;;6902952;28;20040;-90
2021/05/05 04:49:33;;;;;;;1.90;1.50;;;;;;;;;;6902713;28;20034;-89
2021/05/05 04:52:53;;;;;;;4.05;1.80;;;;;;;;;;6919864;28;20060;-89
2021/05/05 04:56:14;;;;;;;2.22;1.80;;;;;;;;;;6920535;28;20583;-88
2021/05/05 04:59:34;;;;;;;4.00;1.42;;;;;;;;;;6919674;28;20060;-87
2021/05/05 05:02:55;;;;;;;1.80;1.30;;;;;;;;;;6920683;28;20033;-93
2021/05/05 05:06:15;;;;;;;1.70;1.60;;;;;;;;;;6919755;28;20106;-91
2021/05/05 05:09:36;;;;;;;1.73;1.60;;;;;;;;;;6920531;28;20061;-91
2021/05/05 05:12:56;;;;;;;2.03;1.60;;;;;;;;;;6919767;28;20053;-92
2021/05/05 05:16:17;;;;;;;1.77;1.58;;;;;;;;;;6902323;28;20026;-93
2021/05/05 05:19:37;;;;;;;7.90;1.63;;;;;;;;;;6901799;28;20029;-92
2021/05/05 05:22:58;;;;;;;3.58;1.52;;;;;;;;;;6919687;28;20101;-91
2021/05/05 05:26:18;;;;;;;2.25;1.70;;;;;;;;;;6901950;28;20026;-91
2021/05/05 05:29:39;;;;;;;1.92;1.33;;;;;;;;;;6901439;28;20042;-91
2021/05/05 05:32:59;;;;;;;1.42;1.30;;;;;;;;;;6902711;28;20026;-92
2021/05/05 05:36:21;;;;;;;2.47;1.83;;;;;;;;;;6901143;28;20034;-92
2021/05/05 05:39:41;;;;;;;2.22;1.80;;;;;;;;;;6901361;28;20033;-91
2021/05/05 05:43:02;;;;;;;2.25;2.05;;;;;;;;;;6901074;28;20124;-91
2021/05/05 05:46:23;;;;;;;5.68;3.10;;;;;;;;;;6901898;28;20029;-89
2021/05/05 05:49:43;;;;;;;3.30;3.00;;;;;;;;;;6917419;28;20030;-90
2021/05/05 05:53:03;;;;;;;5.18;3.03;;;;;;;;;;6918009;28;20041;-91
2021/05/05 05:56:24;;;;;;;2.42;1.83;;;;;;;;;;6917405;28;20029;-92
2021/05/05 05:59:44;;;;;;;1.88;1.63;;;;;;;;;;6900837;28;20471;-85
2021/05/05 06:03:06;;;;;;;1.60;1.50;;;;;;;;;;6917686;28;20060;-85
2021/05/05 06:06:26;;;;;;;1.70;1.60;;;;;;;;;;6918323;28;20038;-86
2021/05/05 06:09:47;;;;;;;1.45;1.35;;;;;;;;;;6918255;28;20071;-85
2021/05/05 06:13:07;;;;;;;1.73;1.63;;;;;;;;;;6917895;28;20057;-89
2021/05/05 06:16:28;;;;;;;1.80;1.55;;;;;;;;;;6915328;28;20045;-86
2021/05/05 06:19:48;;;;;;;2.08;1.63;;;;;;;;;;6917181;28;20053;-86
2021/05/05 06:23:09;;;;;;;2.00;1.50;;;;;;;;;;6917181;28;20170;-87
2021/05/05 06:26:30;;;;;;;4.82;1.73;;;;;;;;;;6916588;28;20030;-87
2021/05/05 06:29:50;;;;;;;2.65;1.52;;;;;;;;;;6915625;28;20045;-88
2021/05/05 06:33:11;;;;;;;3.17;1.75;;;;;;;;;;6915539;28;20033;-86
2021/05/05 06:36:32;;;;;;;2.83;1.60;;;;;;;;;;6916864;28;20032;-87
2021/05/05 06:39:53;;;;;;;3.28;1.50;;;;;;;;;;6917375;28;20037;-87
2021/05/05 06:43:14;;;;;;;1.50;1.40;;;;;;;;;;6917142;28;20038;-87
2021/05/05 06:46:35;;;;;;;1.98;1.65;;;;;;;;;;6916422;28;20030;-85
2021/05/05 06:49:56;;;;;;;2.30;1.65;;;;;;;;;;6916525;28;20030;-86
2021/05/05 06:53:16;;;;;;;2.00;1.60;;;;;;;;;;6917128;28;20052;-85
2021/05/05 06:56:36;;;;;;;2.42;1.67;;;;;;;;;;6916666;28;20379;-92
2021/05/05 06:59:57;;;;;;;1.65;1.42;;;;;;;;;;6912858;28;20549;-91
2021/05/05 07:03:18;;;;;;;16.58;6.38;;;;;;;;;;6912821;28;20034;-85
2021/05/05 07:06:38;;;;;;;15.52;6.35;;;;;;;;;;6914340;28;20106;-86
2021/05/05 07:09:58;;;;;;;18.58;6.30;;;;;;;;;;6912302;28;20033;-86
2021/05/05 07:13:20;;;;;;;16.80;7.07;;;;;;;;;;6914707;28;20113;-86
2021/05/05 07:16:40;;;;;;;14.23;7.10;;;;;;;;;;6916014;28;20384;-86
2021/05/05 07:20:01;;;;;;;14.80;6.50;;;;;;;;;;6916018;28;20487;-86
2021/05/05 07:23:21;;;;;;;18.55;6.88;;;;;;;;;;6914414;28;20029;-88
2021/05/05 07:26:42;;;;;;;13.50;4.03;;;;;;;;;;6914532;28;20040;-90
2021/05/05 07:30:04;;;;;;;13.05;3.72;;;;;;;;;;6913466;28;20388;-89
2021/05/05 07:33:25;;;;;;;11.38;3.45;;;;;;;;;;6915742;28;20036;-92
2021/05/05 07:36:47;;;;;;;7.68;3.35;;;;;;;;;;6915090;28;20025;-91
2021/05/05 07:47:35;;;;;;;9.38;3.42;;;;;;;;;;6916174;28;20042;-93
2021/05/05 07:50:56;;;;;;;6.55;2.88;;;;;;;;;;6917346;28;20372;-92
2021/05/05 07:54:18;;;;;;;6.47;3.08;;;;;;;;;;6917512;28;20042;-90
2021/05/05 07:57:42;;;;;;;7.68;3.10;;;;;;;;;;6901303;28;20036;-91
2021/05/05 08:01:03;;;;;;;3.80;2.40;;;;;;;;;;6901016;28;20030;-91
2021/05/05 08:04:30;;;;;;;6.05;3.25;;;;;;;;;;6916772;28;20030;-94
2021/05/05 08:07:53;;;;;;;7.72;2.60;;;;;;;;;;6916608;28;20037;-95
2021/05/05 08:11:14;;;;;;;5.80;2.78;;;;;;;;;;6901177;28;20029;-95
2021/05/05 08:14:34;;;;;;;6.20;2.53;;;;;;;;;;6900043;28;20058;-91
2021/05/05 08:17:55;;;;;;;5.00;2.40;;;;;;;;;;6921602;28;20025;-95
2021/05/05 08:21:15;;;;;;;5.88;2.60;;;;;;;;;;6913471;28;20436;-91
2021/05/05 08:24:37;;;;;;;7.22;2.53;;;;;;;;;;6900298;28;20085;-91
2021/05/05 08:27:57;;;;;;;11.18;2.83;;;;;;;;;;6922110;28;20064;-92
2021/05/05 08:31:18;;;;;;;3.75;2.63;;;;;;;;;;6927636;28;20038;-91
2021/05/05 08:34:38;;;;;;;7.35;2.55;;;;;;;;;;6902223;28;20034;-91
2021/05/05 08:37:59;;;;;;;8.43;3.13;;;;;;;;;;6918267;28;20022;-94
2021/05/05 08:41:19;;;;;;;6.95;2.88;;;;;;;;;;6917853;28;20065;-92
2021/05/05 08:44:44;;;;;;;6.15;2.97;;;;;;;;;;6917632;28;20427;-90
2021/05/05 08:48:06;;;;;;;6.03;2.95;;;;;;;;;;6901401;28;20030;-91
2021/05/05 08:51:27;;;;;;;6.32;2.90;;;;;;;;;;6916896;28;20034;-90
2021/05/05 08:54:47;;;;;;;4.47;2.70;;;;;;;;;;6921397;28;20076;-90
2021/05/05 08:58:07;;;;;;;5.05;2.20;;;;;;;;;;6922219;28;20041;-88
2021/05/05 09:01:28;;;;;;;3.95;2.17;;;;;;;;;;6923936;28;20052;-90
2021/05/05 09:05:03;;;;;;;5.88;2.38;;;;;;;;;;6905577;28;20034;-91
2021/05/05 09:08:25;;;;;;;4.07;2.45;;;;;;;;;;6922024;28;20030;-90
2021/05/05 09:11:46;;;;;;;4.35;2.25;;;;;;;;;;6920626;28;20037;-89
2021/05/05 09:15:19;;;;;;;5.45;2.60;;;;;;;;;;6920053;28;20029;-92
2021/05/05 09:18:55;;;;;;;7.43;2.80;;;;;;;;;;6900359;28;20030;-89
2021/05/05 09:22:47;;;;;;;4.25;2.65;;;;;;;;;;6917587;28;20026;-91
2021/05/05 09:26:08;;;;;;;3.78;2.40;;;;;;;;;;6915578;28;20026;-85
2021/05/05 09:29:37;;;;;;;7.03;2.50;;;;;;;;;;6920561;28;20177;-88
2021/05/05 09:32:58;;;;;;;5.55;2.17;;;;;;;;;;6922082;28;20094;-90
2021/05/05 09:36:19;;;;;;;5.43;2.47;;;;;;;;;;6922460;28;20030;-90
2021/05/05 09:39:40;;;;;;;4.22;2.35;;;;;;;;;;6927350;28;20026;-89
2021/05/05 09:43:16;;;;;;;7.82;2.50;;;;;;;;;;6931770;28;20478;-90
2021/05/05 09:46:45;;;;;;;4.75;2.42;;;;;;;;;;6919130;28;20475;-92
2021/05/05 09:50:05;;;;;;;;;;;;;;;;;;6922782;28;20032;-91
2021/05/05 09:53:35;;;;;;;4.50;2.38;;;;;;;;;;6903988;28;19913;-92
2021/05/05 09:57:18;;;;;;;7.47;2.40;;;;;;;;;;6918220;28;20026;-91
2021/05/05 10:00:39;;;;;;;5.78;2.30;;;;;;;;;;6919376;28;20036;-92
2021/05/05 10:03:59;;;;;;;4.97;2.08;;;;;;;;;;6919189;28;20030;-89
2021/05/05 10:07:20;;;;;;;7.43;2.63;;;;;;;;;;6920978;28;20086;-87
2021/05/05 10:10:42;;;;;;;4.00;2.17;;;;;;;;;;6923845;28;20089;-89
2021/05/05 10:14:07;;;;;;;3.33;2.25;;;;;;;;;;6918377;28;20021;-90
2021/05/05 10:17:28;;;;;;;7.45;3.13;;;;;;;;;;6919761;28;20399;-88
2021/05/05 10:20:48;;;;;;;4.78;3.20;;;;;;;;;;6930005;28;20463;-89
2021/05/05 10:24:09;;;;;;;4.28;2.90;;;;;;;;;;6918398;28;20050;-91
2021/05/05 10:27:30;;;;;;;6.63;3.30;;;;;;;;;;6919140;28;20463;-88
2021/05/05 10:30:51;;;;;;;6.72;3.33;;;;;;;;;;6917569;28;20096;-89
2021/05/05 10:34:23;;;;;;;4.18;3.03;;;;;;;;;;6918059;28;20035;-88
2021/05/05 10:37:57;;;;;;;4.57;2.40;;;;;;;;;;6903117;28;20026;-91
2021/05/05 10:41:20;;;;;;;9.77;3.75;;;;;;;;;;6919351;28;20037;-90
2021/05/05 10:44:53;;;;;;;6.63;3.58;;;;;;;;;;6917961;28;20084;-88
2021/05/05 10:48:18;;;;;;;8.07;3.50;;;;;;;;;;6910113;28;20029;-90
2021/05/05 10:51:59;;;;;;;11.40;3.75;;;;;;;;;;6915613;28;20413;-89
2021/05/05 10:55:37;;;;;;;10.60;3.92;;;;;;;;;;6917658;28;20034;-87
2021/05/05 10:59:07;;;;;;;9.82;3.35;;;;;;;;;;6912426;28;20044;-90
2021/05/05 11:02:40;;;;;;;13.63;3.15;;;;;;;;;;6921916;28;20030;-90
2021/05/05 11:06:01;;;;;;;6.10;3.13;;;;;;;;;;6918523;28;20034;-89
2021/05/05 11:09:23;;;;;;;6.00;3.00;;;;;;;;;;6917749;28;20121;-90
2021/05/05 11:12:44;;;;;;;6.25;2.72;;;;;;;;;;6915635;28;20029;-89
2021/05/05 11:16:05;;;;;;;10.82;2.42;;;;;;;;;;6921065;28;20034;-90
2021/05/05 11:19:41;;;;;;;6.72;2.47;;;;;;;;;;6900564;28;20038;-90
2021/05/05 11:23:02;;;;;;;7.40;2.72;;;;;;;;;;6916893;28;20041;-91
2021/05/05 11:26:34;;;;;;;4.65;2.80;;;;;;;;;;6915229;28;20079;-88
2021/05/05 11:29:55;;;;;;;12.88;2.60;;;;;;;;;;6914851;28;20077;-94
2021/05/05 11:33:18;;;;;;;14.20;3.10;;;;;;;;;;6919004;28;20472;-86
2021/05/05 11:36:40;;;;;;;7.10;2.47;;;;;;;;;;6912858;28;20080;-87
2021/05/05 11:40:03;;;;;;;9.40;2.60;;;;;;;;;;6916615;28;20088;-91
2021/05/05 11:43:26;;;;;;;6.43;2.00;;;;;;;;;;6913847;28;20048;-94
2021/05/05 11:46:58;;;;;;;3.45;2.28;;;;;;;;;;6918472;28;20029;-93
2021/05/05 11:50:22;;;;;;;4.60;2.08;;;;;;;;;;6917725;28;20042;-93
2021/05/05 11:53:43;;;;;;;2.97;2.05;;;;;;;;;;6919007;28;20072;-92
2021/05/05 11:57:05;;;;;;;4.90;2.03;;;;;;;;;;6918261;28;20383;-93
2021/05/05 12:00:30;;;;;;;4.43;1.88;;;;;;;;;;6918514;28;20034;-90
2021/05/05 12:03:51;;;;;;;6.35;2.25;;;;;;;;;;6919126;28;20349;-93
2021/05/05 12:07:16;;;;;;;3.85;2.10;;;;;;;;;;6917507;28;20042;-94
2021/05/05 12:10:40;;;;;;;6.28;2.22;;;;;;;;;;6919035;28;20030;-93
2021/05/05 12:14:01;;;;;;;8.43;2.38;;;;;;;;;;6902353;28;20045;-93
2021/05/05 12:17:31;;;;;;;7.22;2.38;;;;;;;;;;6917357;28;20120;-92
2021/05/05 12:20:54;;;;;;;5.00;2.03;;;;;;;;;;6918389;28;20026;-94
2021/05/05 12:24:15;;;;;;;4.13;1.90;;;;;;;;;;6917760;28;20069;-94
2021/05/05 12:34:33;;;;;;;5.85;1.98;;;;;;;;;;7895379;22;20495;-90
2021/05/05 12:37:57;;;;;;;4.82;2.25;;;;;;;;;;6921185;28;20097;-90
2021/05/05 12:41:23;;;;;;;4.97;2.38;;;;;;;;;;6920870;28;20042;-92
2021/05/05 12:44:44;;;;;;;4.60;2.60;;;;;;;;;;6921116;28;20038;-91
2021/05/05 12:48:06;;;;;;;4.70;2.25;;;;;;;;;;6910309;28;20056;-92
2021/05/05 12:51:35;;;;;;;4.82;2.38;;;;;;;;;;6928797;28;20383;-95
2021/05/05 12:54:58;;;;;;;4.97;2.20;;;;;;;;;;6921607;28;20060;-92
2021/05/05 12:58:19;;;;;;;2.92;1.73;;;;;;;;;;6921700;28;20045;-90
2021/05/05 13:01:40;;;;;;;8.50;2.10;;;;;;;;;;6920582;28;20033;-90
2021/05/05 13:05:08;;;;;;;7.57;2.20;;;;;;;;;;6921082;28;20042;-90
2021/05/05 13:08:29;;;;;;;7.30;2.20;;;;;;;;;;6921934;28;20037;-90
2021/05/05 13:11:57;;;;;;;3.85;2.20;;;;;;;;;;6910388;28;20038;-89
2021/05/05 13:15:34;;;;;;;4.45;2.05;;;;;;;;;;6906510;28;20134;-90
2021/05/05 13:19:19;;;;;;;2.67;1.80;;;;;;;;;;6922007;28;20045;-93
2021/05/05 13:34:08;;;;;;;9.95;1.95;;;;;;;;;;6922411;28;20053;-91
2021/05/05 13:37:29;;;;;;;7.47;1.75;;;;;;;;;;6940160;28;20426;-91
2021/05/05 13:40:54;;;;;;;5.20;2.05;;;;;;;;;;6947918;28;20451;-92
2021/05/05 13:44:29;;;;;;;5.15;2.10;;;;;;;;;;6949319;28;20033;-91
2021/05/05 13:51:25;;;;;;;4.05;2.13;;;;;;;;;;6935457;28;20042;-91
2021/05/05 13:54:46;;;;;;;10.20;2.08;;;;;;;;;;6948349;28;20045;-91
2021/05/05 13:58:06;;;;;;;3.55;1.98;;;;;;;;;;6948002;28;20055;-91
2021/05/05 14:01:27;;;;;;;5.35;2.20;;;;;;;;;;6947873;28;20033;-91
2021/05/05 14:04:48;;;;;;;4.18;1.95;;;;;;;;;;6947406;28;20096;-91
2021/05/05 14:08:08;;;;;;;6.47;2.00;;;;;;;;;;6946476;28;20029;-90
2021/05/05 14:11:29;;;;;;;5.20;2.28;;;;;;;;;;6947316;28;20030;-87
2021/05/05 14:14:50;;;;;;;7.55;2.08;;;;;;;;;;6946750;28;20395;-87
2021/05/05 14:18:11;;;;;;;3.65;2.28;;;;;;;;;;6947005;28;20044;-90
2021/05/05 14:21:31;;;;;;;5.90;2.17;;;;;;;;;;6928644;28;20041;-91
2021/05/05 14:24:52;;;;;;;4.25;2.60;;;;;;;;;;6947301;28;20454;-90
2021/05/05 14:28:13;;;;;;;5.95;2.03;;;;;;;;;;6947261;28;20083;-90
2021/05/05 14:31:33;;;;;;;4.13;1.73;;;;;;;;;;6947024;28;20071;-90
2021/05/05 14:34:54;;;;;;;4.32;1.73;;;;;;;;;;6947500;28;20045;-87
2021/05/05 14:38:16;;;;;;;4.63;2.13;;;;;;;;;;6928984;28;20045;-88
2021/05/05 14:41:37;;;;;;;2.80;1.70;;;;;;;;;;6947274;28;20029;-90
2021/05/05 14:45:10;;;;;;;3.47;2.03;;;;;;;;;;6946125;28;20029;-90
2021/05/05 14:48:31;;;;;;;3.83;2.10;;;;;;;;;;6936736;28;20030;-89
2021/05/05 14:51:51;;;;;;;3.10;1.80;;;;;;;;;;6946296;28;20414;-90
2021/05/05 14:55:13;;;;;;;2.08;1.88;;;;;;;;;;6946722;28;20083;-90
2021/05/05 15:02:09;;;;;;;3.05;1.75;;;;;;;;;;6946956;28;20030;-88
2021/05/05 15:05:30;;;;;;;4.28;2.03;;;;;;;;;;6946488;28;20053;-90
2021/05/05 15:09:23;;;;;;;7.28;2.08;;;;;;;;;;6946819;28;20364;-91
2021/05/05 15:37:29;;;;;;;4.20;1.75;;;;;;;;;;6937880;28;20447;-88
2021/05/05 15:44:48;;;;;;;5.03;1.80;;;;;;;;;;6942875;28;20059;-88
2021/05/05 15:48:00;;;;;;;4.25;1.80;;;;;;;;;;6938539;28;20410;-88
2021/05/05 15:51:21;;;;;;;8.65;1.90;;;;;;;;;;6944071;28;20040;-88
2021/05/05 15:54:41;;;;;;;3.35;1.60;;;;;;;;;;6943576;28;20032;-88
2021/05/05 15:58:06;;;;;;;6.97;2.15;;;;;;;;;;6943229;28;20036;-88
2021/05/05 16:02:34;;;;;;;2.75;1.65;;;;;;;;;;6943482;28;20076;-88
2021/05/05 16:12:36;;;;;;;6.00;2.58;;;;;;;;;;6943412;28;20030;-88
2021/05/05 16:15:57;;;;;;;3.90;1.67;;;;;;;;;;6943828;28;20088;-88
2021/05/05 16:19:21;;;;;;;5.80;1.63;;;;;;;;;;6945927;28;20087;-91
2021/05/05 16:23:39;;;;;;;2.60;1.58;;;;;;;;;;6933153;28;20117;-90
2021/05/05 16:26:36;;;;;;;2.72;1.67;;;;;;;;;;6928546;28;20442;-91
2021/05/05 16:48:11;;;;;;;7.55;1.58;;;;;;;;;;6944089;28;20071;-96
2021/05/05 16:54:58;;;;;;;8.93;1.85;;;;;;;;;;6943956;28;20044;-92
2021/05/05 17:12:31;;;;;;;4.25;1.85;;;;;;;;;;6943961;28;20441;-92
2021/05/05 17:15:57;;;;;;;4.32;2.00;;;;;;;;;;6929451;28;20025;-92
2021/05/05 17:19:25;;;;;;;6.22;1.80;;;;;;;;;;6932489;28;20486;-92
2021/05/05 17:23:00;;;;;;;4.18;1.88;;;;;;;;;;6932956;28;20037;-92
2021/05/05 17:52:04;;;;;;;4.22;2.10;;;;;;;;;;6947975;28;20095;-92
2021/05/05 18:13:46;;;;;;;;;;;;;;;;;;6928521;28;20096;-91
2021/05/05 18:20:17;;;;;;;2.97;1.90;;;;;;;;;;6930358;28;20435;-85
2021/05/05 18:23:50;;;;;;;3.15;1.90;;;;;;;;;;6947585;28;20090;-90
2021/05/05 18:30:38;;;;;;;4.00;1.70;;;;;;;;;;6931079;28;20034;-90
2021/05/05 18:33:59;;;;;;;4.50;2.20;;;;;;;;;;6946001;28;20136;-90
2021/05/05 18:37:19;;;;;;;4.40;1.83;;;;;;;;;;6929918;28;20079;-90
2021/05/05 18:41:29;;;;;;;3.83;2.13;;;;;;;;;;6927428;28;20060;-90
2021/05/05 19:13:50;;;;;;;6.07;1.55;;;;;;;;;;6934153;28;20038;-96
2021/05/05 20:32:58;;;;;;;20.05;2.60;;;;;;;;;;6912335;28;20041;-90
2021/05/05 21:09:08;;;;;;;4.18;1.92;;;;;;;;;;6921390;28;20383;-92
2021/05/05 21:16:57;;;;;;;5.95;2.72;;;;;;;;;;6912775;28;20038;-88
2021/05/05 21:24:03;;;;;;;7.22;2.65;;;;;;;;;;6919410;28;19925;-86
2021/05/05 22:00:30;;;;;;;7.78;3.13;;;;;;;;;;6943811;28;20029;-89
2021/05/05 23:17:00;;;;;;;6.63;2.20;;;;;;;;;;6935058;28;20061;-91
2021/05/05 23:27:29;;;;;;;8.45;2.67;;;;;;;;;;6946922;28;20051;-91
2021/05/05 23:31:22;;;;;;;5.18;2.72;;;;;;;;;;6933949;28;20047;-91
2021/05/05 23:53:16;;;;;;;4.72;1.90;;;;;;;;;;6945698;28;20041;-90
